sensor_id;sensor_type;location;lat;lon;timestamp;temperature;humidity
23697;DHT22;48864;50.820;4.400;2022-09-13T00:01:55;21.40;99.90
23697;DHT22;48864;50.820;4.400;2022-09-13T00:04:20;21.40;99.90
23697;DHT22;48864;50.820;4.400;2022-09-13T00:06:46;21.50;99.90
23697;DHT22;48864;50.820;4.400;2022-09-13T00:09:12;21.60;99.90
23697;DHT22;48864;50.820;4.400;2022-09-13T00:11:38;21.50;99.90
23697;DHT22;48864;50.820;4.400;2022-09-13T00:14:03;21.40;99.90
23697;DHT22;48864;50.820;4.400;2022-09-13T00:16:29;21.50;99.90
23697;DHT22;48864;50.820;4.400;2022-09-13T00:18:55;21.50;99.90
23697;DHT22;48864;50.820;4.400;2022-09-13T00:21:22;21.40;99.90
23697;DHT22;48864;50.820;4.400;2022-09-13T00:23:51;21.30;99.90
23697;DHT22;48864;50.820;4.400;2022-09-13T00:26:19;21.50;99.90
23697;DHT22;48864;50.820;4.400;2022-09-13T00:28:48;21.30;99.90
23697;DHT22;48864;50.820;4.400;2022-09-13T00:31:16;21.20;99.90
23697;DHT22;48864;50.820;4.400;2022-09-13T00:33:41;21.10;99.90
23697;DHT22;48864;50.820;4.400;2022-09-13T00:36:09;21.00;99.90
23697;DHT22;48864;50.820;4.400;2022-09-13T00:38:36;21.10;99.90
23697;DHT22;48864;50.820;4.400;2022-09-13T00:41:04;21.10;99.90
23697;DHT22;48864;50.820;4.400;2022-09-13T00:43:57;20.90;99.90
23697;DHT22;48864;50.820;4.400;2022-09-13T00:46:44;21.00;99.90
23697;DHT22;48864;50.820;4.400;2022-09-13T00:49:17;21.00;99.90
23697;DHT22;48864;50.820;4.400;2022-09-13T00:51:49;20.90;99.90
23697;DHT22;48864;50.820;4.400;2022-09-13T00:54:17;20.90;99.90
23697;DHT22;48864;50.820;4.400;2022-09-13T00:56:48;20.90;99.90
23697;DHT22;48864;50.820;4.400;2022-09-13T00:59:22;20.90;99.90
23697;DHT22;48864;50.820;4.400;2022-09-13T01:01:52;20.90;99.90
23697;DHT22;48864;50.820;4.400;2022-09-13T01:04:21;20.90;99.90
23697;DHT22;48864;50.820;4.400;2022-09-13T01:06:48;20.80;99.90
23697;DHT22;48864;50.820;4.400;2022-09-13T01:09:16;20.70;99.90
23697;DHT22;48864;50.820;4.400;2022-09-13T01:11:46;20.70;99.90
23697;DHT22;48864;50.820;4.400;2022-09-13T01:14:16;20.70;99.90
23697;DHT22;48864;50.820;4.400;2022-09-13T01:16:42;20.80;99.90
23697;DHT22;48864;50.820;4.400;2022-09-13T01:19:08;20.80;99.90
23697;DHT22;48864;50.820;4.400;2022-09-13T01:24:22;20.90;99.90
23697;DHT22;48864;50.820;4.400;2022-09-13T01:27:16;21.00;99.90
23697;DHT22;48864;50.820;4.400;2022-09-13T01:35:03;21.00;99.90
23697;DHT22;48864;50.820;4.400;2022-09-13T01:37:49;21.00;99.90
23697;DHT22;48864;50.820;4.400;2022-09-13T01:43:26;20.90;99.90
23697;DHT22;48864;50.820;4.400;2022-09-13T01:46:11;21.00;99.90
23697;DHT22;48864;50.820;4.400;2022-09-13T01:49:02;21.20;99.90
23697;DHT22;48864;50.820;4.400;2022-09-13T01:51:35;21.20;99.90
23697;DHT22;48864;50.820;4.400;2022-09-13T01:56:35;21.30;99.90
23697;DHT22;48864;50.820;4.400;2022-09-13T01:59:21;21.20;99.90
23697;DHT22;48864;50.820;4.400;2022-09-13T02:01:58;21.10;99.90
23697;DHT22;48864;50.820;4.400;2022-09-13T02:04:33;21.30;99.90
23697;DHT22;48864;50.820;4.400;2022-09-13T02:09:36;21.60;99.90
23697;DHT22;48864;50.820;4.400;2022-09-13T02:12:16;21.50;99.90
23697;DHT22;48864;50.820;4.400;2022-09-13T02:14:45;21.50;99.90
23697;DHT22;48864;50.820;4.400;2022-09-13T02:17:16;21.60;99.90
23697;DHT22;48864;50.820;4.400;2022-09-13T02:22:26;21.60;99.90
23697;DHT22;48864;50.820;4.400;2022-09-13T02:24:56;21.50;99.90
23697;DHT22;48864;50.820;4.400;2022-09-13T02:27:25;21.40;99.90
23697;DHT22;48864;50.820;4.400;2022-09-13T02:29:56;21.10;99.90
23697;DHT22;48864;50.820;4.400;2022-09-13T02:33:32;21.00;99.90
23697;DHT22;48864;50.820;4.400;2022-09-13T02:35:37;20.90;99.90
23697;DHT22;48864;50.820;4.400;2022-09-13T02:38:07;20.70;99.90
23697;DHT22;48864;50.820;4.400;2022-09-13T02:40:44;20.90;99.90
23697;DHT22;48864;50.820;4.400;2022-09-13T02:43:19;20.90;99.90
23697;DHT22;48864;50.820;4.400;2022-09-13T02:45:50;20.90;99.90
23697;DHT22;48864;50.820;4.400;2022-09-13T02:48:46;20.60;99.90
23697;DHT22;48864;50.820;4.400;2022-09-13T02:51:35;20.80;99.90
23697;DHT22;48864;50.820;4.400;2022-09-13T02:59:15;20.80;99.90
23697;DHT22;48864;50.820;4.400;2022-09-13T03:01:50;21.00;99.90
23697;DHT22;48864;50.820;4.400;2022-09-13T03:04:17;21.10;99.90
23697;DHT22;48864;50.820;4.400;2022-09-13T03:06:43;21.20;99.90
23697;DHT22;48864;50.820;4.400;2022-09-13T03:09:09;21.10;99.90
23697;DHT22;48864;50.820;4.400;2022-09-13T03:14:47;21.10;99.90
23697;DHT22;48864;50.820;4.400;2022-09-13T03:17:51;21.10;99.90
23697;DHT22;48864;50.820;4.400;2022-09-13T03:20:24;21.00;99.90
23697;DHT22;48864;50.820;4.400;2022-09-13T03:31:28;21.20;99.90
23697;DHT22;48864;50.820;4.400;2022-09-13T03:34:02;21.20;99.90
23697;DHT22;48864;50.820;4.400;2022-09-13T03:36:40;21.40;99.90
23697;DHT22;48864;50.820;4.400;2022-09-13T03:39:11;21.10;99.90
23697;DHT22;48864;50.820;4.400;2022-09-13T03:41:43;20.90;99.90
23697;DHT22;48864;50.820;4.400;2022-09-13T03:44:13;20.70;99.90
23697;DHT22;48864;50.820;4.400;2022-09-13T03:46:46;20.70;99.90
23697;DHT22;48864;50.820;4.400;2022-09-13T03:49:18;20.80;99.90
23697;DHT22;48864;50.820;4.400;2022-09-13T03:51:48;20.90;99.90
23697;DHT22;48864;50.820;4.400;2022-09-13T03:54:27;21.00;99.90
23697;DHT22;48864;50.820;4.400;2022-09-13T03:57:18;21.10;99.90
23697;DHT22;48864;50.820;4.400;2022-09-13T03:59:51;21.10;99.90
23697;DHT22;48864;50.820;4.400;2022-09-13T04:02:18;21.10;99.90
23697;DHT22;48864;50.820;4.400;2022-09-13T04:04:45;21.20;99.90
23697;DHT22;48864;50.820;4.400;2022-09-13T04:07:13;20.90;99.90
23697;DHT22;48864;50.820;4.400;2022-09-13T04:09:39;21.00;99.90
23697;DHT22;48864;50.820;4.400;2022-09-13T04:12:05;21.10;99.90
23697;DHT22;48864;50.820;4.400;2022-09-13T04:14:31;21.20;99.90
23697;DHT22;48864;50.820;4.400;2022-09-13T04:16:57;21.30;99.90
23697;DHT22;48864;50.820;4.400;2022-09-13T04:19:24;21.40;99.90
23697;DHT22;48864;50.820;4.400;2022-09-13T04:21:51;21.50;99.90
23697;DHT22;48864;50.820;4.400;2022-09-13T04:24:18;21.40;99.90
23697;DHT22;48864;50.820;4.400;2022-09-13T04:26:47;21.30;99.90
23697;DHT22;48864;50.820;4.400;2022-09-13T04:29:13;21.30;99.90
23697;DHT22;48864;50.820;4.400;2022-09-13T04:31:39;21.30;99.90
23697;DHT22;48864;50.820;4.400;2022-09-13T04:34:05;21.30;99.90
23697;DHT22;48864;50.820;4.400;2022-09-13T04:36:31;21.50;99.90
23697;DHT22;48864;50.820;4.400;2022-09-13T04:38:58;21.40;99.90
23697;DHT22;48864;50.820;4.400;2022-09-13T04:41:24;21.50;99.90
23697;DHT22;48864;50.820;4.400;2022-09-13T04:43:50;21.50;99.90
23697;DHT22;48864;50.820;4.400;2022-09-13T04:46:16;21.50;99.90
23697;DHT22;48864;50.820;4.400;2022-09-13T04:48:44;21.50;99.90
23697;DHT22;48864;50.820;4.400;2022-09-13T04:51:12;21.60;99.90
23697;DHT22;48864;50.820;4.400;2022-09-13T04:53:39;21.50;99.90
23697;DHT22;48864;50.820;4.400;2022-09-13T04:56:05;21.40;99.90
23697;DHT22;48864;50.820;4.400;2022-09-13T04:58:31;21.40;99.90
23697;DHT22;48864;50.820;4.400;2022-09-13T05:01:01;21.40;99.90
23697;DHT22;48864;50.820;4.400;2022-09-13T05:03:31;21.50;99.90
23697;DHT22;48864;50.820;4.400;2022-09-13T05:06:05;21.00;99.90
23697;DHT22;48864;50.820;4.400;2022-09-13T05:08:31;20.40;99.90
23697;DHT22;48864;50.820;4.400;2022-09-13T05:10:57;20.20;99.90
23697;DHT22;48864;50.820;4.400;2022-09-13T05:13:24;20.10;99.90
23697;DHT22;48864;50.820;4.400;2022-09-13T05:16:10;20.20;99.90
23697;DHT22;48864;50.820;4.400;2022-09-13T05:18:36;20.30;99.90
23697;DHT22;48864;50.820;4.400;2022-09-13T05:21:03;20.10;99.90
23697;DHT22;48864;50.820;4.400;2022-09-13T05:23:32;20.10;99.90
23697;DHT22;48864;50.820;4.400;2022-09-13T05:25:59;20.10;99.90
23697;DHT22;48864;50.820;4.400;2022-09-13T05:28:28;20.30;99.90
23697;DHT22;48864;50.820;4.400;2022-09-13T05:31:06;20.30;99.90
23697;DHT22;48864;50.820;4.400;2022-09-13T05:33:34;20.30;99.90
23697;DHT22;48864;50.820;4.400;2022-09-13T05:36:00;20.10;99.90
23697;DHT22;48864;50.820;4.400;2022-09-13T05:38:26;20.10;99.90
23697;DHT22;48864;50.820;4.400;2022-09-13T05:41:02;20.20;99.90
23697;DHT22;48864;50.820;4.400;2022-09-13T05:43:31;20.20;99.90
23697;DHT22;48864;50.820;4.400;2022-09-13T05:46:05;20.00;99.90
23697;DHT22;48864;50.820;4.400;2022-09-13T05:48:32;20.00;99.90
23697;DHT22;48864;50.820;4.400;2022-09-13T05:51:15;19.90;99.90
23697;DHT22;48864;50.820;4.400;2022-09-13T05:53:43;19.80;99.90
23697;DHT22;48864;50.820;4.400;2022-09-13T05:56:11;19.80;99.90
23697;DHT22;48864;50.820;4.400;2022-09-13T05:58:38;19.90;99.90
23697;DHT22;48864;50.820;4.400;2022-09-13T06:01:07;19.80;99.90
23697;DHT22;48864;50.820;4.400;2022-09-13T06:03:33;19.80;99.90
23697;DHT22;48864;50.820;4.400;2022-09-13T06:05:58;19.90;99.90
23697;DHT22;48864;50.820;4.400;2022-09-13T06:08:25;20.10;99.90
23697;DHT22;48864;50.820;4.400;2022-09-13T06:11:02;20.30;99.90
23697;DHT22;48864;50.820;4.400;2022-09-13T06:13:28;20.40;99.90
23697;DHT22;48864;50.820;4.400;2022-09-13T06:15:55;20.40;99.90
23697;DHT22;48864;50.820;4.400;2022-09-13T06:18:22;20.50;99.90
23697;DHT22;48864;50.820;4.400;2022-09-13T06:20:49;20.70;99.90
23697;DHT22;48864;50.820;4.400;2022-09-13T06:23:15;20.90;99.90
23697;DHT22;48864;50.820;4.400;2022-09-13T06:25:42;20.90;99.90
23697;DHT22;48864;50.820;4.400;2022-09-13T06:28:08;20.90;99.90
23697;DHT22;48864;50.820;4.400;2022-09-13T06:30:35;20.90;99.90
23697;DHT22;48864;50.820;4.400;2022-09-13T06:33:00;20.80;99.90
23697;DHT22;48864;50.820;4.400;2022-09-13T06:35:26;20.80;99.90
23697;DHT22;48864;50.820;4.400;2022-09-13T06:37:56;20.90;99.90
23697;DHT22;48864;50.820;4.400;2022-09-13T06:40:23;21.00;99.90
23697;DHT22;48864;50.820;4.400;2022-09-13T06:42:49;20.90;99.90
23697;DHT22;48864;50.820;4.400;2022-09-13T06:45:15;21.00;99.90
23697;DHT22;48864;50.820;4.400;2022-09-13T06:47:40;21.00;99.90
23697;DHT22;48864;50.820;4.400;2022-09-13T06:50:07;21.10;99.90
23697;DHT22;48864;50.820;4.400;2022-09-13T06:52:34;21.20;99.90
23697;DHT22;48864;50.820;4.400;2022-09-13T06:54:59;21.20;99.90
23697;DHT22;48864;50.820;4.400;2022-09-13T06:57:25;21.10;99.90
23697;DHT22;48864;50.820;4.400;2022-09-13T06:59:54;21.30;99.90
23697;DHT22;48864;50.820;4.400;2022-09-13T07:02:20;21.40;99.90
23697;DHT22;48864;50.820;4.400;2022-09-13T07:04:46;21.40;99.90
23697;DHT22;48864;50.820;4.400;2022-09-13T07:07:11;21.30;99.90
23697;DHT22;48864;50.820;4.400;2022-09-13T07:09:37;21.20;99.90
23697;DHT22;48864;50.820;4.400;2022-09-13T07:12:04;21.20;99.90
23697;DHT22;48864;50.820;4.400;2022-09-13T07:14:31;21.20;99.90
23697;DHT22;48864;50.820;4.400;2022-09-13T07:16:57;21.20;99.90
23697;DHT22;48864;50.820;4.400;2022-09-13T07:19:29;21.20;99.90
23697;DHT22;48864;50.820;4.400;2022-09-13T07:21:56;21.30;99.90
23697;DHT22;48864;50.820;4.400;2022-09-13T07:24:22;21.50;99.90
23697;DHT22;48864;50.820;4.400;2022-09-13T07:26:49;21.50;99.90
23697;DHT22;48864;50.820;4.400;2022-09-13T07:29:17;21.50;99.90
23697;DHT22;48864;50.820;4.400;2022-09-13T07:31:48;21.50;99.90
23697;DHT22;48864;50.820;4.400;2022-09-13T07:34:18;21.10;99.90
23697;DHT22;48864;50.820;4.400;2022-09-13T07:36:45;21.00;99.90
23697;DHT22;48864;50.820;4.400;2022-09-13T07:39:15;20.80;99.90
23697;DHT22;48864;50.820;4.400;2022-09-13T07:41:43;20.70;99.90
23697;DHT22;48864;50.820;4.400;2022-09-13T07:44:10;20.70;99.90
23697;DHT22;48864;50.820;4.400;2022-09-13T07:46:36;20.70;99.90
23697;DHT22;48864;50.820;4.400;2022-09-13T07:49:09;20.70;99.90
23697;DHT22;48864;50.820;4.400;2022-09-13T07:51:36;20.70;99.90
23697;DHT22;48864;50.820;4.400;2022-09-13T07:54:06;20.80;99.90
23697;DHT22;48864;50.820;4.400;2022-09-13T07:56:36;20.80;99.90
23697;DHT22;48864;50.820;4.400;2022-09-13T07:59:05;20.80;99.90
23697;DHT22;48864;50.820;4.400;2022-09-13T08:01:37;20.90;99.90
23697;DHT22;48864;50.820;4.400;2022-09-13T08:04:08;21.10;99.90
23697;DHT22;48864;50.820;4.400;2022-09-13T08:06:35;21.10;99.90
23697;DHT22;48864;50.820;4.400;2022-09-13T08:09:03;20.90;99.90
23697;DHT22;48864;50.820;4.400;2022-09-13T08:11:34;21.00;99.90
23697;DHT22;48864;50.820;4.400;2022-09-13T08:14:01;21.00;99.90
23697;DHT22;48864;50.820;4.400;2022-09-13T08:16:27;21.10;99.90
23697;DHT22;48864;50.820;4.400;2022-09-13T08:18:56;21.30;99.90
23697;DHT22;48864;50.820;4.400;2022-09-13T08:21:22;21.40;99.90
23697;DHT22;48864;50.820;4.400;2022-09-13T08:23:49;21.50;99.90
23697;DHT22;48864;50.820;4.400;2022-09-13T08:26:15;21.70;99.90
23697;DHT22;48864;50.820;4.400;2022-09-13T08:28:41;21.80;99.90
23697;DHT22;48864;50.820;4.400;2022-09-13T08:31:12;21.70;99.90
23697;DHT22;48864;50.820;4.400;2022-09-13T08:33:42;21.70;99.90
23697;DHT22;48864;50.820;4.400;2022-09-13T08:36:08;21.70;99.90
23697;DHT22;48864;50.820;4.400;2022-09-13T08:38:35;21.80;99.90
23697;DHT22;48864;50.820;4.400;2022-09-13T08:41:03;21.90;99.90
23697;DHT22;48864;50.820;4.400;2022-09-13T08:46:40;21.90;99.90
23697;DHT22;48864;50.820;4.400;2022-09-13T08:49:16;21.80;99.90
23697;DHT22;48864;50.820;4.400;2022-09-13T08:51:53;21.90;99.90
23697;DHT22;48864;50.820;4.400;2022-09-13T08:54:20;22.10;99.90
23697;DHT22;48864;50.820;4.400;2022-09-13T08:57:10;22.20;99.90
23697;DHT22;48864;50.820;4.400;2022-09-13T09:05:45;22.40;99.90
23697;DHT22;48864;50.820;4.400;2022-09-13T09:08:28;22.40;99.90
23697;DHT22;48864;50.820;4.400;2022-09-13T09:10:58;22.30;99.90
23697;DHT22;48864;50.820;4.400;2022-09-13T09:13:31;22.50;99.90
23697;DHT22;48864;50.820;4.400;2022-09-13T09:19:00;22.60;99.90
23697;DHT22;48864;50.820;4.400;2022-09-13T09:21:28;22.70;99.90
23697;DHT22;48864;50.820;4.400;2022-09-13T09:23:55;22.80;99.90
23697;DHT22;48864;50.820;4.400;2022-09-13T09:26:27;22.90;99.90
23697;DHT22;48864;50.820;4.400;2022-09-13T09:29:19;22.90;99.90
23697;DHT22;48864;50.820;4.400;2022-09-13T09:37:32;23.00;99.90
23697;DHT22;48864;50.820;4.400;2022-09-13T09:40:01;23.10;99.90
23697;DHT22;48864;50.820;4.400;2022-09-13T09:42:39;23.10;99.90
23697;DHT22;48864;50.820;4.400;2022-09-13T09:47:49;23.20;99.90
23697;DHT22;48864;50.820;4.400;2022-09-13T09:50:22;23.20;99.90
23697;DHT22;48864;50.820;4.400;2022-09-13T09:53:17;23.20;99.90
23697;DHT22;48864;50.820;4.400;2022-09-13T09:56:33;23.20;99.90
23697;DHT22;48864;50.820;4.400;2022-09-13T09:58:52;23.20;99.90
23697;DHT22;48864;50.820;4.400;2022-09-13T10:01:40;23.30;99.90
23697;DHT22;48864;50.820;4.400;2022-09-13T10:06:38;23.30;99.90
23697;DHT22;48864;50.820;4.400;2022-09-13T10:09:19;23.40;99.90
23697;DHT22;48864;50.820;4.400;2022-09-13T10:19:41;23.40;99.90
23697;DHT22;48864;50.820;4.400;2022-09-13T10:22:15;23.40;99.90
23697;DHT22;48864;50.820;4.400;2022-09-13T10:24:41;23.40;99.90
23697;DHT22;48864;50.820;4.400;2022-09-13T10:29:57;23.60;99.90
23697;DHT22;48864;50.820;4.400;2022-09-13T10:32:25;23.50;99.90
23697;DHT22;48864;50.820;4.400;2022-09-13T10:34:56;23.50;99.90
23697;DHT22;48864;50.820;4.400;2022-09-13T10:37:27;23.60;99.90
23697;DHT22;48864;50.820;4.400;2022-09-13T10:40:12;23.60;99.90
23697;DHT22;48864;50.820;4.400;2022-09-13T10:42:53;23.80;99.90
23697;DHT22;48864;50.820;4.400;2022-09-13T10:45:25;23.90;99.90
23697;DHT22;48864;50.820;4.400;2022-09-13T10:47:54;23.80;99.90
23697;DHT22;48864;50.820;4.400;2022-09-13T10:50:25;23.70;99.90
23697;DHT22;48864;50.820;4.400;2022-09-13T10:52:51;23.70;99.90
23697;DHT22;48864;50.820;4.400;2022-09-13T10:57:49;23.70;99.90
23697;DHT22;48864;50.820;4.400;2022-09-13T11:00:19;23.70;99.90
23697;DHT22;48864;50.820;4.400;2022-09-13T11:05:43;23.50;99.90
23697;DHT22;48864;50.820;4.400;2022-09-13T11:11:04;23.60;99.90
23697;DHT22;48864;50.820;4.400;2022-09-13T11:16:33;23.60;99.90
23697;DHT22;48864;50.820;4.400;2022-09-13T11:22:06;23.70;99.90
23697;DHT22;48864;50.820;4.400;2022-09-13T11:30:17;23.80;99.90
23697;DHT22;48864;50.820;4.400;2022-09-13T11:35:53;23.70;99.90
23697;DHT22;48864;50.820;4.400;2022-09-13T11:50:00;23.70;99.90
23697;DHT22;48864;50.820;4.400;2022-09-13T11:55:17;23.80;99.90
23697;DHT22;48864;50.820;4.400;2022-09-13T11:57:52;23.70;99.90
23697;DHT22;48864;50.820;4.400;2022-09-13T12:05:54;23.80;99.90
23697;DHT22;48864;50.820;4.400;2022-09-13T12:08:30;23.80;99.90
23697;DHT22;48864;50.820;4.400;2022-09-13T12:11:01;23.70;99.90
23697;DHT22;48864;50.820;4.400;2022-09-13T12:13:52;23.70;99.90
23697;DHT22;48864;50.820;4.400;2022-09-13T12:16:22;23.80;99.90
23697;DHT22;48864;50.820;4.400;2022-09-13T12:18:53;23.90;99.90
23697;DHT22;48864;50.820;4.400;2022-09-13T12:21:23;24.00;99.90
23697;DHT22;48864;50.820;4.400;2022-09-13T12:26:32;24.00;99.90
23697;DHT22;48864;50.820;4.400;2022-09-13T12:29:34;24.00;99.90
23697;DHT22;48864;50.820;4.400;2022-09-13T12:32:05;24.20;99.90
23697;DHT22;48864;50.820;4.400;2022-09-13T12:34:39;24.20;99.90
23697;DHT22;48864;50.820;4.400;2022-09-13T12:48:58;23.90;99.90
23697;DHT22;48864;50.820;4.400;2022-09-13T12:54:36;24.00;99.90
23697;DHT22;48864;50.820;4.400;2022-09-13T12:57:09;23.90;99.90
23697;DHT22;48864;50.820;4.400;2022-09-13T13:02:36;23.80;99.90
23697;DHT22;48864;50.820;4.400;2022-09-13T13:05:14;23.70;99.90
23697;DHT22;48864;50.820;4.400;2022-09-13T13:07:56;23.70;99.90
23697;DHT22;48864;50.820;4.400;2022-09-13T13:10:32;23.70;99.90
23697;DHT22;48864;50.820;4.400;2022-09-13T13:13:22;23.90;99.90
23697;DHT22;48864;50.820;4.400;2022-09-13T13:15:55;24.00;99.90
23697;DHT22;48864;50.820;4.400;2022-09-13T13:21:24;24.10;99.90
23697;DHT22;48864;50.820;4.400;2022-09-13T13:24:53;24.20;99.90
23697;DHT22;48864;50.820;4.400;2022-09-13T13:26:55;24.10;99.90
23697;DHT22;48864;50.820;4.400;2022-09-13T13:29:24;23.90;99.90
23697;DHT22;48864;50.820;4.400;2022-09-13T13:57:36;24.60;99.90
23697;DHT22;48864;50.820;4.400;2022-09-13T14:00:22;24.40;99.90
23697;DHT22;48864;50.820;4.400;2022-09-13T14:11:26;23.20;99.90
23697;DHT22;48864;50.820;4.400;2022-09-13T14:19:28;22.90;99.90
23697;DHT22;48864;50.820;4.400;2022-09-13T14:22:19;22.90;99.90
23697;DHT22;48864;50.820;4.400;2022-09-13T14:24:46;22.90;99.90
23697;DHT22;48864;50.820;4.400;2022-09-13T14:27:34;23.10;99.90
23697;DHT22;48864;50.820;4.400;2022-09-13T14:30:13;23.20;99.90
23697;DHT22;48864;50.820;4.400;2022-09-13T14:32:43;23.20;99.90
23697;DHT22;48864;50.820;4.400;2022-09-13T14:38:30;23.30;99.90
23697;DHT22;48864;50.820;4.400;2022-09-13T14:41:19;23.30;99.90
23697;DHT22;48864;50.820;4.400;2022-09-13T14:43:47;23.30;99.90
23697;DHT22;48864;50.820;4.400;2022-09-13T14:46:29;23.30;99.90
23697;DHT22;48864;50.820;4.400;2022-09-13T14:49:00;23.50;99.90
23697;DHT22;48864;50.820;4.400;2022-09-13T14:51:29;23.50;99.90
23697;DHT22;48864;50.820;4.400;2022-09-13T14:54:05;23.50;99.90
23697;DHT22;48864;50.820;4.400;2022-09-13T14:56:40;23.40;99.90
23697;DHT22;48864;50.820;4.400;2022-09-13T14:59:30;23.40;99.90
23697;DHT22;48864;50.820;4.400;2022-09-13T15:01:57;23.50;99.90
23697;DHT22;48864;50.820;4.400;2022-09-13T15:04:23;23.50;99.90
23697;DHT22;48864;50.820;4.400;2022-09-13T15:09:46;23.50;99.90
23697;DHT22;48864;50.820;4.400;2022-09-13T15:12:23;23.50;99.90
23697;DHT22;48864;50.820;4.400;2022-09-13T15:20:43;23.50;99.90
23697;DHT22;48864;50.820;4.400;2022-09-13T15:23:15;23.40;99.90
23697;DHT22;48864;50.820;4.400;2022-09-13T15:25:51;23.40;99.90
23697;DHT22;48864;50.820;4.400;2022-09-13T15:28:51;23.40;99.90
23697;DHT22;48864;50.820;4.400;2022-09-13T15:31:26;23.40;99.90
23697;DHT22;48864;50.820;4.400;2022-09-13T15:36:43;23.40;99.90
23697;DHT22;48864;50.820;4.400;2022-09-13T15:39:18;23.60;99.90
23697;DHT22;48864;50.820;4.400;2022-09-13T15:41:59;23.60;99.90
23697;DHT22;48864;50.820;4.400;2022-09-13T15:44:29;23.50;99.90
23697;DHT22;48864;50.820;4.400;2022-09-13T15:47:01;23.70;99.90
23697;DHT22;48864;50.820;4.400;2022-09-13T15:49:32;23.50;99.90
23697;DHT22;48864;50.820;4.400;2022-09-13T15:52:01;23.50;99.90
23697;DHT22;48864;50.820;4.400;2022-09-13T15:54:38;23.60;99.90
23697;DHT22;48864;50.820;4.400;2022-09-13T15:57:15;23.60;99.90
23697;DHT22;48864;50.820;4.400;2022-09-13T15:59:41;23.50;99.90
23697;DHT22;48864;50.820;4.400;2022-09-13T16:02:26;23.40;99.90
23697;DHT22;48864;50.820;4.400;2022-09-13T16:04:53;23.30;99.90
23697;DHT22;48864;50.820;4.400;2022-09-13T16:07:21;23.30;99.90
23697;DHT22;48864;50.820;4.400;2022-09-13T16:09:48;23.30;99.90
23697;DHT22;48864;50.820;4.400;2022-09-13T16:12:14;23.20;99.90
23697;DHT22;48864;50.820;4.400;2022-09-13T16:14:40;23.20;99.90
23697;DHT22;48864;50.820;4.400;2022-09-13T16:17:20;23.20;99.90
23697;DHT22;48864;50.820;4.400;2022-09-13T16:19:46;23.20;99.90
23697;DHT22;48864;50.820;4.400;2022-09-13T16:22:12;23.30;99.90
23697;DHT22;48864;50.820;4.400;2022-09-13T16:24:37;23.30;99.90
23697;DHT22;48864;50.820;4.400;2022-09-13T16:27:03;23.40;99.90
23697;DHT22;48864;50.820;4.400;2022-09-13T16:29:29;23.40;99.90
23697;DHT22;48864;50.820;4.400;2022-09-13T16:31:55;23.30;99.90
23697;DHT22;48864;50.820;4.400;2022-09-13T16:34:24;23.40;99.90
23697;DHT22;48864;50.820;4.400;2022-09-13T16:36:50;23.40;99.90
23697;DHT22;48864;50.820;4.400;2022-09-13T16:39:15;23.50;99.90
23697;DHT22;48864;50.820;4.400;2022-09-13T16:41:41;23.40;99.90
23697;DHT22;48864;50.820;4.400;2022-09-13T16:44:09;23.20;99.90
23697;DHT22;48864;50.820;4.400;2022-09-13T16:46:35;23.10;99.90
23697;DHT22;48864;50.820;4.400;2022-09-13T16:49:02;23.00;99.90
23697;DHT22;48864;50.820;4.400;2022-09-13T16:51:27;23.00;99.90
23697;DHT22;48864;50.820;4.400;2022-09-13T16:53:53;22.90;99.90
23697;DHT22;48864;50.820;4.400;2022-09-13T16:56:22;22.80;99.90
23697;DHT22;48864;50.820;4.400;2022-09-13T16:58:49;22.80;99.90
23697;DHT22;48864;50.820;4.400;2022-09-13T17:01:17;22.80;99.90
23697;DHT22;48864;50.820;4.400;2022-09-13T17:03:44;22.80;99.90
23697;DHT22;48864;50.820;4.400;2022-09-13T17:06:12;22.80;99.90
23697;DHT22;48864;50.820;4.400;2022-09-13T17:08:40;22.80;99.90
23697;DHT22;48864;50.820;4.400;2022-09-13T17:11:10;22.80;99.90
23697;DHT22;48864;50.820;4.400;2022-09-13T17:13:37;22.80;99.90
23697;DHT22;48864;50.820;4.400;2022-09-13T17:16:07;22.80;99.90
23697;DHT22;48864;50.820;4.400;2022-09-13T17:18:41;22.80;99.90
23697;DHT22;48864;50.820;4.400;2022-09-13T17:21:07;22.90;99.90
23697;DHT22;48864;50.820;4.400;2022-09-13T17:23:32;22.90;99.90
23697;DHT22;48864;50.820;4.400;2022-09-13T17:25:58;22.90;99.90
23697;DHT22;48864;50.820;4.400;2022-09-13T17:28:23;22.80;99.90
23697;DHT22;48864;50.820;4.400;2022-09-13T17:30:49;22.70;99.90
23697;DHT22;48864;50.820;4.400;2022-09-13T17:33:15;22.70;99.90
23697;DHT22;48864;50.820;4.400;2022-09-13T17:35:40;22.70;99.90
23697;DHT22;48864;50.820;4.400;2022-09-13T17:38:08;22.70;99.90
23697;DHT22;48864;50.820;4.400;2022-09-13T17:40:33;22.70;99.90
23697;DHT22;48864;50.820;4.400;2022-09-13T17:42:59;22.70;99.90
23697;DHT22;48864;50.820;4.400;2022-09-13T17:45:25;22.70;99.90
23697;DHT22;48864;50.820;4.400;2022-09-13T17:47:52;22.60;99.90
23697;DHT22;48864;50.820;4.400;2022-09-13T17:50:17;22.60;99.90
23697;DHT22;48864;50.820;4.400;2022-09-13T17:52:43;22.60;99.90
23697;DHT22;48864;50.820;4.400;2022-09-13T17:55:09;22.60;99.90
23697;DHT22;48864;50.820;4.400;2022-09-13T17:57:35;22.60;99.90
23697;DHT22;48864;50.820;4.400;2022-09-13T18:00:03;22.60;99.90
23697;DHT22;48864;50.820;4.400;2022-09-13T18:02:30;22.60;99.90
23697;DHT22;48864;50.820;4.400;2022-09-13T18:04:55;22.60;99.90
23697;DHT22;48864;50.820;4.400;2022-09-13T18:07:21;22.50;99.90
23697;DHT22;48864;50.820;4.400;2022-09-13T18:09:46;22.30;99.90
23697;DHT22;48864;50.820;4.400;2022-09-13T18:12:12;22.30;99.90
23697;DHT22;48864;50.820;4.400;2022-09-13T18:14:38;22.40;99.90
23697;DHT22;48864;50.820;4.400;2022-09-13T18:17:04;22.30;99.90
23697;DHT22;48864;50.820;4.400;2022-09-13T18:19:40;22.20;99.90
23697;DHT22;48864;50.820;4.400;2022-09-13T18:22:16;22.10;99.90
23697;DHT22;48864;50.820;4.400;2022-09-13T18:24:47;22.00;99.90
23697;DHT22;48864;50.820;4.400;2022-09-13T18:27:13;22.00;99.90
23697;DHT22;48864;50.820;4.400;2022-09-13T18:29:39;21.80;99.90
23697;DHT22;48864;50.820;4.400;2022-09-13T18:32:10;21.90;99.90
23697;DHT22;48864;50.820;4.400;2022-09-13T18:34:39;21.80;99.90
23697;DHT22;48864;50.820;4.400;2022-09-13T18:37:09;21.80;99.90
23697;DHT22;48864;50.820;4.400;2022-09-13T18:39:35;21.70;99.90
23697;DHT22;48864;50.820;4.400;2022-09-13T18:42:12;21.70;99.90
23697;DHT22;48864;50.820;4.400;2022-09-13T18:44:37;21.60;99.90
23697;DHT22;48864;50.820;4.400;2022-09-13T18:47:03;21.60;99.90
23697;DHT22;48864;50.820;4.400;2022-09-13T18:49:29;21.70;99.90
23697;DHT22;48864;50.820;4.400;2022-09-13T18:51:55;21.60;99.90
23697;DHT22;48864;50.820;4.400;2022-09-13T18:54:24;21.60;99.90
23697;DHT22;48864;50.820;4.400;2022-09-13T18:56:52;21.60;99.90
23697;DHT22;48864;50.820;4.400;2022-09-13T18:59:19;21.60;99.90
23697;DHT22;48864;50.820;4.400;2022-09-13T19:01:48;21.40;99.90
23697;DHT22;48864;50.820;4.400;2022-09-13T19:04:19;21.30;99.90